This is the latest recevied weather packets stored in our database for station/object NR0Q. If no packets are shown the sender has not sent any weather packets the latest 10 day(s).
| Time | Temp. | Humidity | Pressure | Rain* | Wind** | Luminosity | Snow |
|---|---|---|---|---|---|---|---|
| 1777961701 | 18.89° C | 77% | 1004.7 hPa | 0 mm | - | - | - |
| 1777960802 | 18.89° C | 76% | 1004.7 hPa | 0 mm | - | - | - |
| 1777959001 | 18.89° C | 79% | 1004.7 hPa | 0 mm | - | - | - |
| 1777958101 | 19.44° C | 79% | 1003.7 hPa | 0 mm | - | - | - |
| 1777957201 | 20° C | 75% | 1003.7 hPa | 0 mm | - | - | - |
| 1777956302 | 20° C | 71% | 1003.7 hPa | 0 mm | - | - | - |
| 1777955401 | 20° C | 69% | 1003.7 hPa | 0.51 mm | - | - | - |
| 1777954502 | 20.56° C | 68% | 1003.7 hPa | 0.76 mm | - | - | - |
| 1777953601 | 20.56° C | 66% | 1003.7 hPa | 0.51 mm | - | - | - |
| 1777952702 | 20.56° C | 70% | 1003.7 hPa | 0.51 mm | - | - | - |
| 1777951802 | 21.67° C | 59% | 1004.7 hPa | 0 mm | - | - | - |
| 1777950902 | 21.67° C | 58% | 1003.7 hPa | 0 mm | - | - | - |
| 1777950001 | 22.22° C | 57% | 1003.7 hPa | 0 mm | - | - | - |
| 1777949102 | 22.22° C | 57% | 1004.7 hPa | 0 mm | - | - | - |
| 1777948201 | 22.78° C | 57% | 1004.7 hPa | 0 mm | - | - | - |
| 1777947302 | 22.78° C | 57% | 1004.7 hPa | 0 mm | - | - | - |
| 1777946401 | 22.78° C | 57% | 1004.7 hPa | 0 mm | - | - | - |
| 1777945501 | 23.33° C | 56% | 1004.7 hPa | 0 mm | - | - | - |
| 1777944601 | 23.33° C | 56% | 1003.7 hPa | 0 mm | - | - | - |
| 1777943701 | 23.33° C | 56% | 1003.7 hPa | 0 mm | - | - | - |
| 1777942801 | 23.89° C | 55% | 1003.7 hPa | 0 mm | - | - | - |
| 1777941901 | 23.89° C | 56% | 1003.7 hPa | 0 mm | - | - | - |
| 1777941001 | 24.44° C | 56% | 1003.7 hPa | 0 mm | - | - | - |
| 1777940101 | 24.44° C | 55% | 1003.7 hPa | 0 mm | - | - | - |
| 1777939201 | 25° C | 53% | 1003.7 hPa | 0 mm | - | - | - |
* Rain latest hour (hover to see other rain measurements)
** Current wind speed in m/s (hover to see current wind gust speed)